This is the latest recevied weather packets stored in our database for station/object N3WGC-14. If no packets are shown the sender has not sent any weather packets the latest 10 day(s).
| Time | Temp. | Humidity | Pressure | Rain* | Wind** | Luminosity | Snow |
|---|---|---|---|---|---|---|---|
| 1787758731 | 26.11° C | 79% | 1019.5 hPa | 0 mm | - | - | - |
| 1787758431 | 26.11° C | 82% | 1019.6 hPa | 0 mm | - | - | - |
| 1787758131 | 25.56° C | 82% | 1019.7 hPa | 0 mm | - | - | - |
| 1787757831 | 25.56° C | 85% | 1019.7 hPa | 0 mm | - | - | - |
| 1787757530 | 25.56° C | 85% | 1019.7 hPa | 0 mm | - | - | - |
| 1787757230 | 25.56° C | 85% | 1019.7 hPa | 0 mm | - | - | - |
| 1787756930 | 25.56° C | 82% | 1019.7 hPa | 0 mm | - | - | - |
| 1787756630 | 25.56° C | 81% | 1019.8 hPa | 0 mm | - | - | - |
| 1787756330 | 26.11° C | 78% | 1019.7 hPa | 0 mm | - | - | - |
| 1787756030 | 26.11° C | 79% | 1019.7 hPa | 0 mm | - | - | - |
| 1787755729 | 26.67° C | 77% | 1019.7 hPa | 0 mm | - | - | - |
| 1787755429 | 26.11° C | 79% | 1019.7 hPa | 0 mm | - | - | - |
| 1787755129 | 26.11° C | 79% | 1019.7 hPa | 0 mm | - | - | - |
| 1787754829 | 25.56° C | 80% | 1019.8 hPa | 0 mm | - | - | - |
| 1787754529 | 25.56° C | 83% | 1019.8 hPa | 0 mm | - | - | - |
| 1787754229 | 25.56° C | 82% | 1019.7 hPa | 0 mm | - | - | - |
| 1787753928 | 25.56° C | 81% | 1019.7 hPa | 0 mm | - | - | - |
| 1787753628 | 25.56° C | 80% | 1019.7 hPa | 0 mm | - | - | - |
| 1787753328 | 26.11° C | 79% | 1019.6 hPa | 0 mm | - | - | - |
| 1787753028 | 25.56° C | 82% | 1019.6 hPa | 0 mm | - | - | - |
| 1787752728 | 25.56° C | 81% | 1019.6 hPa | 0 mm | - | - | - |
| 1787752428 | 25° C | 84% | 1019.6 hPa | 0 mm | - | - | - |
| 1787752128 | 25° C | 82% | 1019.5 hPa | 0 mm | - | - | - |
| 1787751827 | 24.44° C | 83% | 1019.5 hPa | 0 mm | - | - | - |
| 1787751527 | 23.89° C | 83% | 1019.4 hPa | 0 mm | - | - | - |
* Rain latest hour (hover to see other rain measurements)
** Current wind speed in m/s (hover to see current wind gust speed)